Minnekata, South Dakota
Current Conditions -  °F | °C
As of 5:53 AM on Friday 24 Oct 2014 (Local Time) from KCUT Reporting Station
Clear Clear  
Wind Chill:   Ceiling: Unl
Heat Index:   Visibility: 10mi
Dew Point: -4°   Wind: 6mph
Humidity: 41%   Direction: 280°W
Pressure: 30.03"   Gusts: NA
Location:  43.346°N, 103.483°W
Report Text: KCUT 241153Z AUTO 28005KT 10SM CLR 09/M04 A3003 RMK AO2 SLP132 T00891039 10128 20056 53006
Loading
Personal Weather Stations






























Interactive Weather Map
Tropical Storm Tracking
New forecast layout! Learn more

10-Day Weather Forecast

Advertisements
Track Severe Weather on mobile